Time;durP1;ratioP1;P1;durP2;ratioP2;P2;SDS_P1;SDS_P2;PMS_P1;PMS_P2;Temp;Humidity;BMP_temperature;BMP_pressure;BME280_temperature;BME280_humidity;BME280_pressure;Samples;Min_cycle;Max_cycle;Signal;HPM_P1;HPM_P2
2021/03/22 00:00:37;;;;;;;18.55;2.38;;;3.10;99.90;;;;;;5035415;28;20025;-76
2021/03/22 00:03:04;;;;;;;11.15;1.48;;;3.10;99.90;;;;;;5031461;28;20123;-78
2021/03/22 00:05:30;;;;;;;18.25;2.53;;;3.10;99.90;;;;;;5035910;28;20464;-78
2021/03/22 00:07:56;;;;;;;16.42;2.05;;;3.10;99.90;;;;;;5034755;28;20434;-78
2021/03/22 00:10:24;;;;;;;19.48;1.55;;;3.10;99.90;;;;;;5034919;28;20029;-78
2021/03/22 00:12:50;;;;;;;13.53;1.67;;;5.80;99.90;;;;;;5035453;28;20105;-78
2021/03/22 00:15:17;;;;;;;12.88;2.35;;;3.10;99.90;;;;;;5036139;28;20296;-78
2021/03/22 00:17:44;;;;;;;14.38;2.72;;;3.00;99.90;;;;;;5031616;28;20038;-78
2021/03/22 00:20:11;;;;;;;13.73;1.52;;;3.00;99.90;;;;;;5035430;28;20044;-78
2021/03/22 00:22:37;;;;;;;12.88;1.95;;;2.90;99.90;;;;;;5035218;28;20044;-79
2021/03/22 00:25:04;;;;;;;13.20;1.58;;;2.90;99.90;;;;;;5035638;28;20549;-78
2021/03/22 00:27:30;;;;;;;19.35;3.13;;;2.90;99.90;;;;;;5033266;28;20025;-76
2021/03/22 00:29:55;;;;;;;16.92;2.30;;;2.90;99.90;;;;;;5032285;28;20030;-77
2021/03/22 00:32:21;;;;;;;16.55;2.05;;;2.90;99.90;;;;;;5033604;28;20018;-74
2021/03/22 00:34:46;;;;;;;17.58;2.17;;;2.90;99.90;;;;;;5034869;28;20475;-76
2021/03/22 00:37:12;;;;;;;12.52;2.35;;;2.80;99.90;;;;;;5034792;28;20482;-76
2021/03/22 00:39:37;;;;;;;20.60;2.63;;;2.80;99.90;;;;;;5034927;28;20040;-76
2021/03/22 00:42:04;;;;;;;17.05;1.67;;;2.90;99.90;;;;;;5035487;28;20030;-77
2021/03/22 00:44:30;;;;;;;24.20;2.85;;;2.80;99.90;;;;;;5033980;28;20036;-77
2021/03/22 00:46:55;;;;;;;17.67;1.55;;;2.80;99.90;;;;;;5033506;28;20029;-77
2021/03/22 00:49:21;;;;;;;13.90;2.15;;;2.80;99.90;;;;;;5034100;28;20068;-74
2021/03/22 00:51:46;;;;;;;23.40;2.58;;;2.70;99.90;;;;;;5034393;28;20100;-76
2021/03/22 00:54:12;;;;;;;14.40;1.83;;;2.60;99.90;;;;;;5035170;28;20105;-76
2021/03/22 00:56:38;;;;;;;19.85;2.42;;;2.60;99.90;;;;;;5032337;28;20048;-76
2021/03/22 00:59:04;;;;;;;10.23;1.50;;;2.60;99.90;;;;;;5033657;28;20033;-75
2021/03/22 01:01:30;;;;;;;20.42;1.75;;;2.50;99.90;;;;;;5033441;28;20121;-76
2021/03/22 01:03:55;;;;;;;14.73;2.10;;;2.50;99.90;;;;;;5034447;28;20033;-76
2021/03/22 01:06:21;;;;;;;23.73;2.40;;;2.50;99.90;;;;;;5033266;28;20036;-76
2021/03/22 01:08:47;;;;;;;9.27;1.85;;;2.50;99.90;;;;;;5034543;28;20034;-76
2021/03/22 01:11:20;;;;;;;19.90;2.63;;;2.50;99.90;;;;;;5032085;28;20021;-76
2021/03/22 01:13:47;;;;;;;14.05;2.45;;;2.50;99.90;;;;;;5023357;28;20029;-76
2021/03/22 01:16:14;;;;;;;26.73;2.97;;;2.50;99.90;;;;;;5034729;28;20017;-76
2021/03/22 01:18:43;;;;;;;19.05;2.50;;;2.50;99.90;;;;;;5032930;28;20036;-75
2021/03/22 01:21:18;;;;;;;21.67;2.25;;;2.50;99.90;;;;;;5034499;28;20025;-76
2021/03/22 01:23:44;;;;;;;17.90;3.15;;;2.50;99.90;;;;;;5023190;28;20036;-76
2021/03/22 01:26:11;;;;;;;20.13;3.03;;;2.60;99.90;;;;;;5034571;28;20025;-76
2021/03/22 01:28:37;;;;;;;18.20;1.80;;;2.70;99.90;;;;;;5033522;28;20017;-76
2021/03/22 01:31:04;;;;;;;21.48;2.90;;;2.70;99.90;;;;;;5035096;28;20108;-75
2021/03/22 01:33:35;;;;;;;18.55;2.28;;;2.80;99.90;;;;;;5034578;28;20471;-75
2021/03/22 01:36:27;;;;;;;9.98;1.77;;;2.80;99.90;;;;;;5034590;28;20442;-76
2021/03/22 01:39:00;;;;;;;17.30;2.33;;;2.80;99.90;;;;;;5041101;23;20060;-76
2021/03/22 01:41:37;;;;;;;20.73;1.98;;;2.90;99.90;;;;;;5035352;28;20048;-74
2021/03/22 01:44:26;;;;;;;20.90;3.08;;;2.80;99.90;;;;;;5035462;28;20036;-74
2021/03/22 01:46:58;;;;;;;16.88;2.72;;;2.70;99.90;;;;;;5033584;28;20029;-75
2021/03/22 01:49:28;;;;;;;13.80;1.90;;;2.70;99.90;;;;;;5034187;28;20036;-75
2021/03/22 01:51:54;;;;;;;15.18;2.47;;;2.70;99.90;;;;;;5034837;28;20029;-75
2021/03/22 01:54:21;;;;;;;21.02;2.92;;;2.80;99.90;;;;;;5035458;28;20104;-75
2021/03/22 01:56:55;;;;;;;21.42;2.88;;;2.70;99.90;;;;;;5034211;28;20112;-75
2021/03/22 01:59:29;;;;;;;22.40;3.15;;;2.80;99.90;;;;;;5035671;28;20029;-74
2021/03/22 02:02:00;;;;;;;18.13;2.67;;;2.80;99.90;;;;;;5034143;28;20482;-74
2021/03/22 02:04:28;;;;;;;15.00;2.53;;;2.80;99.90;;;;;;5033601;28;20029;-74
2021/03/22 02:06:53;;;;;;;27.40;3.00;;;2.80;99.90;;;;;;5034298;28;20090;-73
2021/03/22 02:09:19;;;;;;;21.80;3.72;;;2.80;99.90;;;;;;5039273;28;20101;-76
2021/03/22 02:11:45;;;;;;;18.15;2.97;;;2.80;99.90;;;;;;5039644;28;20029;-73
2021/03/22 02:14:14;;;;;;;16.52;3.42;;;2.80;99.90;;;;;;5039831;28;20021;-75
2021/03/22 02:16:54;;;;;;;14.05;2.65;;;2.90;99.90;;;;;;5030692;28;20040;-74
2021/03/22 02:19:25;;;;;;;16.70;2.35;;;3.00;99.90;;;;;;5039484;28;20501;-77
2021/03/22 02:22:09;;;;;;;23.42;3.30;;;3.00;99.90;;;;;;5039779;28;20445;-75
2021/03/22 02:24:57;;;;;;;17.40;2.78;;;3.20;99.90;;;;;;5040622;28;20056;-75
2021/03/22 02:28:10;;;;;;;23.48;3.17;;;3.30;99.90;;;;;;5039941;28;20521;-74
2021/03/22 02:31:00;;;;;;;20.50;3.75;;;3.50;99.90;;;;;;5021647;28;20115;-73
2021/03/22 02:33:48;;;;;;;24.65;2.75;;;3.60;99.90;;;;;;5039355;28;20026;-74
2021/03/22 02:36:20;;;;;;;26.50;2.88;;;3.80;99.90;;;;;;5041232;28;20474;-75
2021/03/22 02:38:51;;;;;;;21.27;3.13;;;3.90;99.90;;;;;;5038993;28;20033;-75
2021/03/22 02:41:23;;;;;;;26.30;3.67;;;3.90;99.90;;;;;;5040859;28;20449;-75
2021/03/22 02:44:16;;;;;;;23.23;3.08;;;4.00;99.90;;;;;;5040884;28;20025;-75
2021/03/22 02:46:41;;;;;;;21.75;2.83;;;4.00;99.90;;;;;;5036356;28;20033;-74
2021/03/22 02:49:15;;;;;;;20.80;2.78;;;4.10;99.90;;;;;;5040470;28;20044;-76
2021/03/22 02:52:06;;;;;;;25.77;3.80;;;4.10;99.90;;;;;;5039981;28;20486;-76
2021/03/22 02:54:36;;;;;;;22.45;2.90;;;4.20;99.90;;;;;;5040237;28;20025;-75
2021/03/22 02:57:10;;;;;;;17.60;2.83;;;4.30;99.90;;;;;;5040766;28;20101;-76
2021/03/22 02:59:43;;;;;;;19.95;3.75;;;4.30;99.90;;;;;;5039855;28;20034;-74
2021/03/22 03:02:10;;;;;;;16.95;1.65;;;4.30;99.90;;;;;;5039928;28;20021;-75
2021/03/22 03:04:37;;;;;;;18.80;2.08;;;4.40;99.90;;;;;;5040160;28;20021;-75
2021/03/22 03:07:07;;;;;;;25.58;2.63;;;4.50;99.90;;;;;;5037759;28;20433;-76
2021/03/22 03:09:35;;;;;;;23.05;2.78;;;4.50;99.90;;;;;;5039915;28;20025;-75
2021/03/22 03:12:23;;;;;;;19.40;3.03;;;4.50;99.90;;;;;;5039883;28;20025;-74
2021/03/22 03:14:52;;;;;;;20.00;2.53;;;4.60;99.90;;;;;;5038202;28;20505;-74
2021/03/22 03:17:20;;;;;;;21.10;2.05;;;4.70;99.90;;;;;;5039777;28;20478;-79
2021/03/22 03:19:46;;;;;;;17.65;1.63;;;4.70;99.90;;;;;;5037972;28;20037;-74
2021/03/22 03:22:12;;;;;;;16.85;3.03;;;4.80;99.90;;;;;;5035198;28;20037;-75
2021/03/22 03:24:39;;;;;;;10.55;1.75;;;4.80;99.90;;;;;;5034750;28;20025;-74
2021/03/22 03:27:07;;;;;;;14.30;2.30;;;4.80;99.90;;;;;;5036523;28;20037;-74
2021/03/22 03:29:33;;;;;;;16.85;1.95;;;4.80;99.90;;;;;;5036030;28;20041;-76
2021/03/22 03:31:59;;;;;;;14.93;2.50;;;4.90;99.90;;;;;;5036760;28;20026;-74
2021/03/22 03:34:24;;;;;;;14.40;2.17;;;4.80;99.90;;;;;;5034998;28;20112;-75
2021/03/22 03:36:50;;;;;;;23.90;3.42;;;4.90;99.90;;;;;;5034813;28;20045;-75
2021/03/22 03:39:16;;;;;;;25.55;2.03;;;4.80;99.90;;;;;;5036313;28;20036;-75
2021/03/22 03:41:41;;;;;;;27.02;2.85;;;4.80;99.90;;;;;;5036134;28;20483;-76
2021/03/22 03:44:09;;;;;;;16.25;2.28;;;4.80;99.90;;;;;;5034439;28;20033;-77
2021/03/22 03:46:35;;;;;;;29.02;2.72;;;4.80;99.90;;;;;;5035908;28;20021;-77
2021/03/22 03:49:02;;;;;;;19.48;3.08;;;4.80;99.90;;;;;;5036834;28;20052;-74
2021/03/22 03:51:27;;;;;;;16.23;3.42;;;4.90;99.90;;;;;;5047214;23;20140;-74
2021/03/22 03:53:53;;;;;;;11.57;1.83;;;4.90;99.90;;;;;;5036105;28;20073;-75
2021/03/22 03:56:19;;;;;;;11.50;1.50;;;5.00;99.90;;;;;;5034986;28;20482;-77
2021/03/22 03:58:44;;;;;;;13.40;1.98;;;5.00;99.90;;;;;;5050149;22;20052;-75
2021/03/22 04:01:10;;;;;;;17.80;2.78;;;5.00;99.90;;;;;;5035710;28;20028;-76
2021/03/22 04:03:39;;;;;;;18.67;1.77;;;5.00;99.90;;;;;;5036319;28;20029;-78
2021/03/22 04:06:15;;;;;;;18.33;1.95;;;5.00;99.90;;;;;;5034392;28;20033;-77
2021/03/22 04:08:46;;;;;;;16.02;2.60;;;5.00;99.90;;;;;;5036318;28;20025;-76
2021/03/22 04:11:16;;;;;;;17.02;2.78;;;5.00;99.90;;;;;;5036574;28;20021;-76
2021/03/22 04:13:42;;;;;;;14.55;1.77;;;5.10;99.90;;;;;;5035873;28;20033;-74
2021/03/22 04:16:11;;;;;;;20.35;2.13;;;5.10;99.90;;;;;;5035652;28;20079;-74
2021/03/22 04:18:38;;;;;;;22.55;2.08;;;5.10;99.90;;;;;;5034231;28;20034;-75
2021/03/22 04:21:06;;;;;;;17.83;1.80;;;5.10;99.90;;;;;;5035043;28;20029;-75
2021/03/22 04:23:42;;;;;;;19.50;2.47;;;5.10;99.90;;;;;;5056869;23;20506;-75
2021/03/22 04:26:09;;;;;;;12.38;2.38;;;5.10;99.90;;;;;;5035374;28;20033;-74
2021/03/22 04:28:35;;;;;;;16.27;1.20;;;4.90;99.90;;;;;;5036030;28;20022;-76
2021/03/22 04:31:01;;;;;;;19.05;2.60;;;5.20;99.90;;;;;;5035807;28;20029;-76
2021/03/22 04:33:27;;;;;;;17.02;2.42;;;5.20;99.90;;;;;;5035521;28;20025;-75
2021/03/22 04:35:52;;;;;;;15.85;1.40;;;5.20;99.90;;;;;;5035544;28;20036;-78
2021/03/22 04:38:19;;;;;;;17.83;2.00;;;5.20;99.90;;;;;;5034454;28;20026;-78
2021/03/22 04:40:44;;;;;;;21.95;1.48;;;5.20;99.90;;;;;;5047240;23;20442;-78
2021/03/22 04:43:11;;;;;;;23.33;1.67;;;5.20;99.90;;;;;;5035275;28;20056;-77
2021/03/22 04:45:37;;;;;;;23.23;2.45;;;5.20;99.90;;;;;;5035143;28;20080;-78
2021/03/22 04:48:03;;;;;;;12.68;1.90;;;5.20;99.90;;;;;;5033980;28;20033;-75
2021/03/22 04:50:29;;;;;;;19.95;2.40;;;5.20;99.90;;;;;;5047145;23;20102;-76
2021/03/22 04:52:59;;;;;;;9.32;1.50;;;5.20;99.90;;;;;;5034692;28;20013;-76
2021/03/22 04:55:25;;;;;;;16.60;1.33;;;5.20;99.90;;;;;;5033726;28;20099;-76
2021/03/22 04:57:51;;;;;;;17.15;1.23;;;6.60;99.90;;;;;;5033198;28;20017;-74
2021/03/22 05:00:28;;;;;;;19.33;2.28;;;5.30;99.90;;;;;;5033621;28;20029;-75
2021/03/22 05:02:57;;;;;;;12.13;2.95;;;5.20;99.90;;;;;;5033153;28;20104;-76
2021/03/22 05:05:23;;;;;;;;;;;5.20;99.90;;;;;;5033747;28;20022;-77
2021/03/22 05:07:50;;;;;;;17.63;2.03;;;5.20;99.90;;;;;;5035204;28;19912;-77
2021/03/22 05:10:39;;;;;;;14.98;1.60;;;5.20;99.90;;;;;;5033447;28;20086;-77
2021/03/22 05:13:07;;;;;;;15.00;2.22;;;5.20;99.90;;;;;;5034727;28;20049;-77
2021/03/22 05:15:33;;;;;;;16.55;2.50;;;5.20;99.90;;;;;;5034332;28;20017;-77
2021/03/22 05:17:59;;;;;;;19.90;1.65;;;5.20;99.90;;;;;;5034059;28;20029;-77
2021/03/22 05:20:31;;;;;;;15.07;1.80;;;5.20;99.90;;;;;;5034095;28;20483;-77
2021/03/22 05:22:58;;;;;;;15.25;1.63;;;5.20;99.90;;;;;;5034004;28;20021;-77
2021/03/22 05:25:23;;;;;;;6.50;0.75;;;5.20;99.90;;;;;;5032617;28;20014;-77
2021/03/22 05:27:49;;;;;;;18.73;1.02;;;5.20;99.90;;;;;;5033866;28;20029;-76
2021/03/22 05:30:16;;;;;;;15.38;2.10;;;5.20;99.90;;;;;;5032774;28;20035;-77
2021/03/22 05:32:42;;;;;;;16.17;0.80;;;5.30;99.90;;;;;;5034340;28;20022;-78
2021/03/22 05:35:12;;;;;;;19.42;1.85;;;5.30;99.90;;;;;;5033216;28;20036;-78
2021/03/22 05:37:37;;;;;;;13.30;1.35;;;5.30;99.90;;;;;;5033975;28;20028;-78
2021/03/22 05:40:09;;;;;;;9.73;0.50;;;5.20;99.90;;;;;;5033072;28;20021;-78
2021/03/22 05:42:55;;;;;;;10.73;1.00;;;5.20;99.90;;;;;;5033326;28;20041;-78
2021/03/22 05:48:01;;;;;;;14.15;1.05;;;5.20;99.90;;;;;;5012939;28;20053;-78
2021/03/22 05:50:34;;;;;;;8.88;0.98;;;5.20;99.90;;;;;;5013881;28;20021;-75
2021/03/22 05:53:26;;;;;;;9.93;1.33;;;5.20;99.90;;;;;;5012912;28;20030;-76
2021/03/22 05:55:54;;;;;;;9.10;1.00;;;5.20;99.90;;;;;;5012712;28;20097;-76
2021/03/22 05:58:43;;;;;;;12.70;1.48;;;5.20;99.90;;;;;;5012075;28;20038;-76
2021/03/22 06:01:24;;;;;;;12.45;1.10;;;5.20;99.90;;;;;;5013394;28;20120;-78
2021/03/22 06:03:57;;;;;;;5.70;0.47;;;5.20;99.90;;;;;;5013752;28;20092;-76
2021/03/22 06:06:34;;;;;;;10.25;1.58;;;5.20;99.90;;;;;;5011581;28;20041;-74
2021/03/22 06:09:28;;;;;;;9.10;0.88;;;5.20;99.90;;;;;;5013538;28;20029;-75
2021/03/22 06:12:24;;;;;;;7.38;1.00;;;5.20;99.90;;;;;;5013686;28;20026;-75
2021/03/22 06:15:02;;;;;;;11.70;1.65;;;5.30;99.90;;;;;;5013908;28;20117;-76
2021/03/22 06:17:42;;;;;;;16.27;2.10;;;5.30;99.90;;;;;;5013816;28;20112;-76
2021/03/22 06:20:34;;;;;;;10.23;1.13;;;5.40;99.90;;;;;;5012245;28;20034;-76
2021/03/22 06:23:12;;;;;;;11.32;1.45;;;5.30;99.90;;;;;;5013363;28;20490;-75
2021/03/22 06:25:38;;;;;;;8.93;0.68;;;5.40;99.90;;;;;;5013849;28;20048;-73
2021/03/22 06:28:31;;;;;;;11.90;0.40;;;5.40;99.90;;;;;;5013607;28;20018;-75
2021/03/22 06:31:04;;;;;;;6.95;0.65;;;5.40;99.90;;;;;;5011716;28;20033;-74
2021/03/22 06:33:39;;;;;;;6.18;0.73;;;5.50;99.90;;;;;;5013261;28;20022;-73
2021/03/22 06:36:07;;;;;;;7.95;0.60;;;5.50;99.90;;;;;;5012358;28;20025;-74
2021/03/22 06:38:33;;;;;;;15.98;1.63;;;5.60;99.90;;;;;;5013753;28;20107;-76
2021/03/22 06:43:26;;;;;;;16.67;1.13;;;5.70;99.90;;;;;;4992716;28;20050;-75
2021/03/22 06:46:12;;;;;;;16.02;2.17;;;5.80;99.90;;;;;;4992861;28;20031;-76
2021/03/22 06:48:37;;;;;;;13.80;1.05;;;5.80;99.90;;;;;;4993865;28;20535;-74
2021/03/22 06:51:03;;;;;;;12.43;0.90;;;5.90;99.90;;;;;;4993573;28;20116;-75
2021/03/22 06:53:39;;;;;;;10.57;1.02;;;5.90;99.90;;;;;;4993495;28;20023;-75
2021/03/22 06:56:12;;;;;;;2.42;0.35;;;5.90;99.90;;;;;;4998249;28;20034;-73
2021/03/22 06:58:39;;;;;;;11.60;1.25;;;6.00;99.90;;;;;;4996909;28;20488;-74
2021/03/22 07:01:26;;;;;;;9.85;0.70;;;6.00;99.90;;;;;;4997594;28;20019;-73
2021/03/22 07:03:53;;;;;;;18.20;1.08;;;6.00;99.90;;;;;;4997108;28;20455;-74
2021/03/22 07:06:22;;;;;;;5.88;0.35;;;6.10;99.90;;;;;;4996959;28;20054;-73
2021/03/22 07:08:49;;;;;;;7.72;0.40;;;6.10;99.90;;;;;;4995811;28;20043;-74
2021/03/22 07:11:21;;;;;;;7.50;0.38;;;6.20;99.90;;;;;;4997351;28;20026;-74
2021/03/22 07:13:55;;;;;;;12.90;0.65;;;6.30;99.90;;;;;;4997786;28;20033;-74
2021/03/22 07:16:24;;;;;;;5.78;1.23;;;6.50;99.90;;;;;;4997695;28;20034;-77
2021/03/22 07:19:04;;;;;;;5.40;0.55;;;6.60;99.90;;;;;;4990101;28;20031;-74
2021/03/22 07:21:34;;;;;;;5.88;0.15;;;6.70;99.90;;;;;;4994906;28;20030;-75
2021/03/22 07:24:11;;;;;;;5.10;0.47;;;6.90;99.90;;;;;;4995778;28;20054;-76
2021/03/22 07:27:02;;;;;;;3.88;0.50;;;6.90;99.90;;;;;;4996538;28;20026;-75
2021/03/22 07:29:45;;;;;;;10.07;1.00;;;6.90;99.90;;;;;;4996060;28;20034;-75
2021/03/22 07:32:44;;;;;;;3.63;0.03;;;6.90;99.90;;;;;;4997827;28;20031;-74
2021/03/22 07:35:45;;;;;;;6.43;0.32;;;7.00;99.90;;;;;;4997037;28;20492;-76
2021/03/22 07:38:35;;;;;;;4.47;0.15;;;7.10;99.90;;;;;;4977217;28;20033;-78
2021/03/22 07:41:15;;;;;;;4.47;0.10;;;7.20;99.90;;;;;;4985020;28;20034;-74
2021/03/22 07:43:50;;;;;;;6.75;0.05;;;7.20;99.90;;;;;;4996672;28;20116;-78
2021/03/22 07:46:34;;;;;;;5.03;0.30;;;7.10;99.90;;;;;;4995953;28;20045;-77
2021/03/22 07:49:10;;;;;;;3.80;0.50;;;7.10;99.90;;;;;;4994527;28;20387;-76
2021/03/22 07:51:47;;;;;;;2.75;0.10;;;7.30;99.90;;;;;;5000181;28;20411;-78
2021/03/22 07:54:45;;;;;;;5.65;0.65;;;7.40;99.90;;;;;;4999378;28;20023;-79
2021/03/22 07:57:18;;;;;;;4.40;0.15;;;7.60;99.90;;;;;;4995403;28;20522;-77
2021/03/22 07:59:56;;;;;;;1.23;0.05;;;7.70;99.90;;;;;;4998039;28;20041;-79
2021/03/22 08:02:50;;;;;;;2.42;0.00;;;8.00;99.90;;;;;;4997279;28;20034;-77
2021/03/22 08:05:35;;;;;;;7.90;0.30;;;8.20;99.90;;;;;;4998256;28;20022;-78
2021/03/22 08:08:09;;;;;;;1.50;0.00;;;8.20;99.90;;;;;;4999081;28;20022;-78
2021/03/22 08:10:42;;;;;;;3.50;0.30;;;8.20;99.90;;;;;;4994543;28;20026;-78
2021/03/22 08:13:23;;;;;;;2.85;0.00;;;8.00;99.90;;;;;;4997997;28;20042;-75
2021/03/22 08:16:21;;;;;;;1.23;0.00;;;7.70;99.90;;;;;;4996949;28;20039;-78
2021/03/22 08:18:57;;;;;;;1.08;0.17;;;7.50;99.90;;;;;;4995131;28;20474;-77
2021/03/22 08:21:38;;;;;;;1.48;0.13;;;7.40;99.90;;;;;;4995419;28;20129;-79
2021/03/22 08:24:23;;;;;;;0.32;0.00;;;7.50;99.90;;;;;;4995793;28;20399;-74
2021/03/22 08:26:48;;;;;;;1.35;0.20;;;7.70;99.90;;;;;;4996441;28;20058;-78
2021/03/22 08:29:21;;;;;;;0.30;0.00;;;7.90;99.90;;;;;;4997416;28;20033;-80
2021/03/22 08:32:08;;;;;;;0.10;0.00;;;8.00;99.90;;;;;;4994493;28;20052;-77
2021/03/22 08:34:49;;;;;;;0.80;0.00;;;8.20;99.90;;;;;;4995462;28;20026;-77
2021/03/22 08:37:25;;;;;;;1.75;0.00;;;8.30;96.80;;;;;;4996023;28;20109;-75
2021/03/22 08:39:50;;;;;;;2.00;0.00;;;8.30;98.70;;;;;;4997048;28;20357;-78
2021/03/22 08:42:29;;;;;;;0.57;0.00;;;8.40;96.00;;;;;;4996112;28;20034;-78
2021/03/22 08:45:09;;;;;;;;;;;8.50;94.90;;;;;;4995722;28;20034;-78
2021/03/22 08:48:03;;;;;;;0.65;0.00;;;8.70;93.90;;;;;;4995330;28;20012;-75
2021/03/22 08:50:33;;;;;;;1.60;0.08;;;8.70;93.80;;;;;;4993267;28;20034;-77
2021/03/22 08:53:12;;;;;;;2.88;0.00;;;8.60;92.30;;;;;;4995344;28;20018;-77
2021/03/22 08:55:41;;;;;;;0.77;0.00;;;8.50;93.00;;;;;;4996431;28;20026;-78
2021/03/22 08:58:13;;;;;;;3.67;0.00;;;8.30;93.80;;;;;;4995132;28;20034;-78
2021/03/22 09:00:46;;;;;;;2.10;0.00;;;8.20;94.40;;;;;;4996177;28;20102;-78
2021/03/22 09:03:15;;;;;;;0.17;0.00;;;8.10;95.50;;;;;;5048248;23;20136;-88
2021/03/22 09:06:03;;;;;;;3.13;0.80;;;5.80;95.80;;;;;;5041019;28;20112;-87
2021/03/22 09:08:35;;;;;;;0.68;0.10;;;11.20;96.40;;;;;;5038859;28;20025;-87
2021/03/22 09:14:21;;;;;;;0.43;0.00;;;8.00;96.90;;;;;;5044759;28;20071;-89
2021/03/22 09:16:51;;;;;;;0.90;0.00;;;8.10;92.30;;;;;;5044762;28;20033;-88
2021/03/22 09:19:17;;;;;;;1.63;0.00;;;7.90;92.60;;;;;;5042669;28;20025;-89
2021/03/22 09:21:44;;;;;;;0.13;0.00;;;10.10;95.20;;;;;;5037657;28;20100;-88
2021/03/22 09:27:05;;;;;;;1.98;0.00;;;8.50;92.60;;;;;;5040295;28;20413;-88
2021/03/22 09:29:31;;;;;;;2.85;0.00;;;8.60;92.30;;;;;;5039472;28;20022;-87
2021/03/22 09:31:58;;;;;;;0.10;0.00;;;8.60;92.60;;;;;;5037916;28;20073;-90
2021/03/22 09:34:43;;;;;;;2.15;0.00;;;8.50;91.00;;;;;;5037714;28;20120;-90
2021/03/22 09:37:48;;;;;;;0.13;0.00;;;8.70;91.50;;;;;;5037863;28;20016;-88
2021/03/22 09:40:26;;;;;;;0.28;0.00;;;8.80;91.40;;;;;;5040619;28;20037;-89
2021/03/22 09:43:07;;;;;;;0.75;0.00;;;9.10;87.10;;;;;;5039230;28;20056;-88
2021/03/22 09:45:52;;;;;;;0.00;0.00;;;9.20;86.10;;;;;;5038552;28;20036;-87
2021/03/22 09:48:24;;;;;;;1.48;0.00;;;9.20;84.60;;;;;;5043203;28;20040;-89
2021/03/22 09:51:12;;;;;;;1.20;0.00;;;9.20;84.70;;;;;;5037392;28;20018;-89
2021/03/22 09:54:02;;;;;;;2.80;0.00;;;9.20;86.80;;;;;;5039814;28;20056;-88
2021/03/22 09:56:43;;;;;;;1.08;0.00;;;9.10;84.60;;;;;;5035319;28;20479;-89
2021/03/22 09:59:50;;;;;;;0.60;0.03;;;9.00;84.70;;;;;;5036053;28;20071;-89
2021/03/22 10:02:54;;;;;;;0.00;0.00;;;10.40;84.40;;;;;;5037891;28;20048;-90
2021/03/22 10:05:25;;;;;;;0.20;0.00;;;9.00;84.90;;;;;;5018605;28;20077;-87
2021/03/22 10:07:58;;;;;;;1.35;0.00;;;9.70;84.60;;;;;;5036081;28;20101;-88
2021/03/22 10:10:28;;;;;;;1.67;0.00;;;11.00;85.50;;;;;;5035163;28;20041;-88
2021/03/22 10:13:00;;;;;;;0.20;0.00;;;11.10;86.30;;;;;;5035047;28;20026;-87
2021/03/22 10:15:42;;;;;;;0.52;0.25;;;11.20;86.30;;;;;;5034759;28;20112;-88
2021/03/22 10:18:30;;;;;;;1.67;0.30;;;9.10;85.70;;;;;;5036328;28;20018;-87
2021/03/22 10:21:09;;;;;;;2.77;0.00;;;9.40;83.60;;;;;;5034723;28;20021;-87
2021/03/22 10:23:57;;;;;;;0.15;0.00;;;9.40;82.60;;;;;;5035111;28;20022;-88
2021/03/22 10:26:57;;;;;;;1.85;0.00;;;9.50;82.10;;;;;;5015702;28;20037;-88
2021/03/22 10:29:25;;;;;;;0.77;0.17;;;11.90;85.10;;;;;;5015591;28;20026;-88
2021/03/22 10:32:01;;;;;;;0.00;0.00;;;11.30;83.30;;;;;;5039628;28;20013;-89
2021/03/22 10:34:31;;;;;;;4.65;0.15;;;9.80;82.90;;;;;;5040085;28;20067;-89
2021/03/22 10:37:33;;;;;;;0.08;0.00;;;10.40;78.90;;;;;;5040564;28;20117;-89
2021/03/22 10:40:03;;;;;;;1.17;0.00;;;10.00;78.30;;;;;;5038081;28;20052;-89
2021/03/22 10:42:36;;;;;;;0.25;0.00;;;9.70;79.10;;;;;;5037417;28;20025;-89
2021/03/22 10:45:18;;;;;;;1.08;0.00;;;10.40;77.10;;;;;;5037435;28;20025;-89
2021/03/22 10:47:44;;;;;;;0.00;0.00;;;10.50;75.90;;;;;;5017723;28;20034;-89
2021/03/22 10:50:26;;;;;;;0.63;0.10;;;10.50;75.30;;;;;;5018160;28;20025;-88
2021/03/22 10:53:15;;;;;;;2.33;0.00;;;10.50;71.20;;;;;;5027209;28;20056;-88
2021/03/22 10:55:48;;;;;;;0.00;0.00;;;10.30;71.90;;;;;;5040279;28;20017;-90
2021/03/22 10:58:33;;;;;;;0.40;0.03;;;10.10;73.40;;;;;;5037763;28;20072;-89
2021/03/22 11:01:03;;;;;;;0.90;0.20;;;10.00;75.20;;;;;;5037809;28;20089;-90
2021/03/22 11:03:34;;;;;;;0.30;0.00;;;9.90;74.60;;;;;;5040127;28;20048;-89
2021/03/22 11:06:00;;;;;;;4.30;0.32;;;9.70;77.00;;;;;;5038990;28;20045;-90
2021/03/22 11:08:31;;;;;;;0.55;0.25;;;12.60;78.10;;;;;;5036152;28;20052;-90
2021/03/22 11:11:04;;;;;;;0.13;0.00;;;9.70;76.30;;;;;;5036764;28;20033;-91
2021/03/22 11:13:34;;;;;;;0.17;0.00;;;9.60;76.90;;;;;;5038036;28;20021;-90
2021/03/22 11:16:00;;;;;;;0.03;0.00;;;9.20;74.00;;;;;;5030767;28;20038;-90
2021/03/22 11:18:29;;;;;;;0.70;0.15;;;12.20;74.10;;;;;;5029847;28;20475;-89
2021/03/22 11:20:56;;;;;;;0.75;0.00;;;10.50;75.80;;;;;;5039361;28;20056;-89
2021/03/22 11:23:34;;;;;;;1.30;0.00;;;9.70;71.80;;;;;;5038885;28;20030;-90
2021/03/22 11:26:11;;;;;;;1.20;0.00;;;9.20;73.20;;;;;;5039567;28;20037;-88
2021/03/22 11:28:38;;;;;;;0.05;0.00;;;9.70;73.90;;;;;;5040282;28;20097;-90
2021/03/22 11:31:16;;;;;;;0.08;0.08;;;9.70;73.50;;;;;;5042096;28;20081;-88
2021/03/22 11:33:46;;;;;;;1.98;0.13;;;9.80;74.00;;;;;;5039664;28;20022;-88
2021/03/22 11:36:18;;;;;;;1.13;0.20;;;9.80;73.30;;;;;;5038411;28;20076;-90
2021/03/22 11:38:56;;;;;;;2.60;0.00;;;9.90;74.30;;;;;;5038340;28;20025;-89
2021/03/22 11:41:28;;;;;;;0.10;0.00;;;9.90;75.50;;;;;;5037489;28;20060;-89
2021/03/22 11:44:04;;;;;;;0.10;0.00;;;9.90;74.90;;;;;;5037437;28;20116;-89
2021/03/22 11:46:30;;;;;;;1.65;0.00;;;9.80;77.50;;;;;;5039710;28;20019;-90
2021/03/22 11:49:04;;;;;;;0.55;0.00;;;9.70;77.80;;;;;;5040259;28;20494;-90
2021/03/22 11:51:31;;;;;;;1.60;0.00;;;9.60;80.70;;;;;;5038238;28;20010;-88
2021/03/22 11:54:01;;;;;;;1.00;0.00;;;10.60;82.50;;;;;;5038028;28;20022;-90
2021/03/22 11:56:28;;;;;;;1.55;0.00;;;9.50;79.90;;;;;;5037563;28;20025;-89
2021/03/22 11:59:23;;;;;;;0.10;0.00;;;9.40;82.60;;;;;;5037596;28;20434;-88
2021/03/22 12:02:24;;;;;;;1.90;0.00;;;9.30;83.10;;;;;;5036710;28;20367;-88
2021/03/22 12:05:02;;;;;;;3.30;0.10;;;9.20;83.70;;;;;;5033264;28;20056;-88
2021/03/22 12:07:37;;;;;;;0.00;0.00;;;9.10;86.10;;;;;;5037811;28;20143;-89
2021/03/22 12:10:13;;;;;;;0.30;0.08;;;9.10;84.80;;;;;;5038928;28;20025;-87
2021/03/22 12:12:42;;;;;;;0.80;0.20;;;9.10;85.50;;;;;;5038091;28;20030;-88
2021/03/22 12:15:09;;;;;;;;;;;9.10;86.60;;;;;;5039139;28;20478;-89
2021/03/22 12:17:36;;;;;;;1.27;0.00;;;9.10;84.30;;;;;;5036380;28;19905;-89
2021/03/22 12:20:05;;;;;;;0.13;0.00;;;9.20;88.20;;;;;;5036636;28;20025;-90
2021/03/22 12:22:30;;;;;;;3.08;0.00;;;9.20;85.60;;;;;;5037753;28;20095;-89
2021/03/22 12:24:56;;;;;;;0.00;0.00;;;9.30;86.00;;;;;;5037565;28;20021;-89
2021/03/22 12:27:25;;;;;;;2.20;0.00;;;9.20;85.30;;;;;;5039488;28;20265;-89
2021/03/22 12:29:51;;;;;;;;;;;8.70;85.70;;;;;;5021075;28;20056;-89
2021/03/22 12:32:35;;;;;;;3.70;0.00;;;12.00;88.40;;;;;;5022581;28;19913;-90
2021/03/22 12:35:00;;;;;;;0.50;0.00;;;9.60;88.00;;;;;;5037440;28;20060;-89
2021/03/22 12:37:32;;;;;;;0.90;0.00;;;10.60;84.90;;;;;;5037749;28;20018;-89
2021/03/22 12:39:58;;;;;;;1.67;0.00;;;9.30;86.00;;;;;;5037726;28;20021;-90
2021/03/22 12:42:29;;;;;;;2.13;0.45;;;9.20;88.80;;;;;;5037093;28;20386;-91
2021/03/22 12:44:55;;;;;;;1.10;0.00;;;9.20;86.40;;;;;;5038090;28;20108;-89
2021/03/22 12:47:33;;;;;;;0.05;0.00;;;8.90;85.60;;;;;;5036874;28;20045;-91
2021/03/22 12:49:59;;;;;;;3.28;0.57;;;7.60;86.40;;;;;;5032677;28;20164;-90
2021/03/22 12:52:25;;;;;;;0.38;0.00;;;7.40;87.40;;;;;;5015602;28;20029;-89
2021/03/22 12:54:51;;;;;;;0.85;0.00;;;11.80;90.60;;;;;;5028094;28;20017;-89
2021/03/22 12:57:21;;;;;;;1.95;0.08;;;11.20;89.80;;;;;;5034834;28;20026;-90
2021/03/22 12:59:48;;;;;;;4.93;0.10;;;11.10;88.50;;;;;;5035875;28;20022;-90
2021/03/22 13:02:16;;;;;;;1.85;0.00;;;11.90;90.10;;;;;;5036456;28;20541;-90
2021/03/22 13:04:42;;;;;;;3.40;0.00;;;8.90;89.00;;;;;;5037093;28;20071;-89
2021/03/22 13:07:08;;;;;;;0.20;0.00;;;8.80;90.70;;;;;;5037252;28;20474;-90
2021/03/22 13:09:34;;;;;;;1.05;0.00;;;8.80;90.00;;;;;;5037064;28;20017;-90
2021/03/22 13:12:02;;;;;;;1.17;0.00;;;8.80;88.90;;;;;;5038342;28;20075;-90
2021/03/22 13:14:32;;;;;;;1.75;0.00;;;8.80;90.70;;;;;;5036827;28;20479;-89
2021/03/22 13:16:57;;;;;;;1.85;0.00;;;8.70;92.40;;;;;;5022582;28;20021;-90
2021/03/22 13:19:26;;;;;;;3.97;0.10;;;8.80;92.70;;;;;;5023031;28;20031;-89
2021/03/22 13:21:52;;;;;;;2.85;0.00;;;7.80;92.90;;;;;;5035837;28;20508;-90
2021/03/22 13:24:21;;;;;;;3.50;0.20;;;9.70;92.50;;;;;;5036279;28;20112;-89
2021/03/22 13:26:50;;;;;;;1.77;0.00;;;8.50;92.50;;;;;;5036355;28;20112;-89
2021/03/22 13:29:16;;;;;;;;;;;9.40;91.90;;;;;;5017051;28;20022;-89
2021/03/22 13:31:42;;;;;;;2.42;0.10;;;8.90;91.70;;;;;;5017371;28;20294;-88
2021/03/22 13:34:11;;;;;;;1.08;0.00;;;8.40;90.60;;;;;;5036093;28;20064;-88